sensor_id;sensor_type;location;lat;lon;timestamp;P1;durP1;ratioP1;P2;durP2;ratioP2
22650;SDS011;11492;42.646;23.400;2022-12-24T00:02:09;17.42;;;9.70;;
22650;SDS011;11492;42.646;23.400;2022-12-24T00:04:34;16.70;;;9.05;;
22650;SDS011;11492;42.646;23.400;2022-12-24T00:06:59;19.42;;;8.95;;
22650;SDS011;11492;42.646;23.400;2022-12-24T00:09:25;18.95;;;8.95;;
22650;SDS011;11492;42.646;23.400;2022-12-24T00:11:50;16.80;;;9.48;;
22650;SDS011;11492;42.646;23.400;2022-12-24T00:14:16;19.77;;;9.70;;
22650;SDS011;11492;42.646;23.400;2022-12-24T00:16:41;17.13;;;9.80;;
22650;SDS011;11492;42.646;23.400;2022-12-24T00:19:06;17.92;;;9.45;;
22650;SDS011;11492;42.646;23.400;2022-12-24T00:21:32;17.75;;;9.35;;
22650;SDS011;11492;42.646;23.400;2022-12-24T00:23:57;21.33;;;10.00;;
22650;SDS011;11492;42.646;23.400;2022-12-24T00:26:23;17.98;;;9.35;;
22650;SDS011;11492;42.646;23.400;2022-12-24T00:28:48;17.40;;;9.18;;
22650;SDS011;11492;42.646;23.400;2022-12-24T00:31:15;16.85;;;9.20;;
22650;SDS011;11492;42.646;23.400;2022-12-24T00:33:42;16.95;;;9.20;;
22650;SDS011;11492;42.646;23.400;2022-12-24T00:36:09;15.60;;;8.65;;
22650;SDS011;11492;42.646;23.400;2022-12-24T00:38:35;16.60;;;9.27;;
22650;SDS011;11492;42.646;23.400;2022-12-24T00:41:01;16.30;;;9.55;;
22650;SDS011;11492;42.646;23.400;2022-12-24T00:43:29;17.90;;;9.55;;
22650;SDS011;11492;42.646;23.400;2022-12-24T00:45:55;16.17;;;9.38;;
22650;SDS011;11492;42.646;23.400;2022-12-24T00:48:21;16.45;;;9.60;;
22650;SDS011;11492;42.646;23.400;2022-12-24T00:50:47;19.60;;;9.23;;
22650;SDS011;11492;42.646;23.400;2022-12-24T00:53:14;19.20;;;9.13;;
22650;SDS011;11492;42.646;23.400;2022-12-24T00:55:40;20.15;;;9.35;;
22650;SDS011;11492;42.646;23.400;2022-12-24T00:58:05;15.75;;;9.40;;
22650;SDS011;11492;42.646;23.400;2022-12-24T01:00:31;16.33;;;9.55;;
22650;SDS011;11492;42.646;23.400;2022-12-24T01:02:56;17.63;;;9.88;;
22650;SDS011;11492;42.646;23.400;2022-12-24T01:05:21;21.27;;;9.35;;
22650;SDS011;11492;42.646;23.400;2022-12-24T01:07:47;17.20;;;10.05;;
22650;SDS011;11492;42.646;23.400;2022-12-24T01:10:14;17.35;;;10.25;;
22650;SDS011;11492;42.646;23.400;2022-12-24T01:12:43;16.42;;;9.75;;
22650;SDS011;11492;42.646;23.400;2022-12-24T01:15:10;17.45;;;9.30;;
22650;SDS011;11492;42.646;23.400;2022-12-24T01:17:37;21.27;;;10.32;;
22650;SDS011;11492;42.646;23.400;2022-12-24T01:20:05;18.50;;;10.07;;
22650;SDS011;11492;42.646;23.400;2022-12-24T01:22:32;22.08;;;9.50;;
22650;SDS011;11492;42.646;23.400;2022-12-24T01:24:57;17.45;;;9.52;;
22650;SDS011;11492;42.646;23.400;2022-12-24T01:27:23;17.33;;;9.25;;
22650;SDS011;11492;42.646;23.400;2022-12-24T01:29:48;16.00;;;9.10;;
22650;SDS011;11492;42.646;23.400;2022-12-24T01:32:13;17.02;;;9.13;;
22650;SDS011;11492;42.646;23.400;2022-12-24T01:34:39;19.35;;;10.60;;
22650;SDS011;11492;42.646;23.400;2022-12-24T01:37:05;14.88;;;8.98;;
22650;SDS011;11492;42.646;23.400;2022-12-24T01:39:30;18.40;;;8.90;;
22650;SDS011;11492;42.646;23.400;2022-12-24T01:41:55;21.10;;;10.05;;
22650;SDS011;11492;42.646;23.400;2022-12-24T01:44:41;15.80;;;9.05;;
22650;SDS011;11492;42.646;23.400;2022-12-24T01:47:21;18.58;;;9.68;;
22650;SDS011;11492;42.646;23.400;2022-12-24T01:52:27;15.73;;;9.45;;
22650;SDS011;11492;42.646;23.400;2022-12-24T01:55:30;17.27;;;9.57;;
22650;SDS011;11492;42.646;23.400;2022-12-24T01:57:54;19.85;;;9.90;;
22650;SDS011;11492;42.646;23.400;2022-12-24T02:00:22;19.75;;;10.57;;
22650;SDS011;11492;42.646;23.400;2022-12-24T02:02:48;21.17;;;9.82;;
22650;SDS011;11492;42.646;23.400;2022-12-24T02:05:21;16.38;;;9.40;;
22650;SDS011;11492;42.646;23.400;2022-12-24T02:07:48;19.23;;;9.95;;
22650;SDS011;11492;42.646;23.400;2022-12-24T02:10:15;17.63;;;9.15;;
22650;SDS011;11492;42.646;23.400;2022-12-24T02:12:41;21.90;;;10.65;;
22650;SDS011;11492;42.646;23.400;2022-12-24T02:15:08;18.95;;;9.95;;
22650;SDS011;11492;42.646;23.400;2022-12-24T02:23:46;25.40;;;11.77;;
22650;SDS011;11492;42.646;23.400;2022-12-24T02:31:44;22.67;;;10.82;;
22650;SDS011;11492;42.646;23.400;2022-12-24T02:34:23;18.17;;;10.05;;
22650;SDS011;11492;42.646;23.400;2022-12-24T02:37:04;17.70;;;9.95;;
22650;SDS011;11492;42.646;23.400;2022-12-24T02:39:47;21.80;;;10.70;;
22650;SDS011;11492;42.646;23.400;2022-12-24T02:42:26;16.70;;;9.10;;
22650;SDS011;11492;42.646;23.400;2022-12-24T02:47:27;18.02;;;8.90;;
22650;SDS011;11492;42.646;23.400;2022-12-24T02:49:53;20.00;;;10.18;;
22650;SDS011;11492;42.646;23.400;2022-12-24T02:52:38;22.35;;;11.13;;
22650;SDS011;11492;42.646;23.400;2022-12-24T03:00:21;20.95;;;9.77;;
22650;SDS011;11492;42.646;23.400;2022-12-24T03:08:05;18.70;;;9.15;;
22650;SDS011;11492;42.646;23.400;2022-12-24T03:10:45;18.88;;;8.90;;
22650;SDS011;11492;42.646;23.400;2022-12-24T03:13:34;20.08;;;8.90;;
22650;SDS011;11492;42.646;23.400;2022-12-24T03:16:02;23.00;;;9.85;;
22650;SDS011;11492;42.646;23.400;2022-12-24T03:18:29;18.48;;;9.55;;
22650;SDS011;11492;42.646;23.400;2022-12-24T03:21:06;18.67;;;9.05;;
22650;SDS011;11492;42.646;23.400;2022-12-24T03:23:36;17.92;;;9.52;;
22650;SDS011;11492;42.646;23.400;2022-12-24T03:26:04;17.52;;;9.73;;
22650;SDS011;11492;42.646;23.400;2022-12-24T03:28:32;19.85;;;9.45;;
22650;SDS011;11492;42.646;23.400;2022-12-24T03:31:02;19.92;;;9.60;;
22650;SDS011;11492;42.646;23.400;2022-12-24T03:33:28;16.83;;;9.38;;
22650;SDS011;11492;42.646;23.400;2022-12-24T03:35:54;20.60;;;9.55;;
22650;SDS011;11492;42.646;23.400;2022-12-24T03:38:20;17.92;;;9.43;;
22650;SDS011;11492;42.646;23.400;2022-12-24T03:40:45;16.95;;;9.52;;
22650;SDS011;11492;42.646;23.400;2022-12-24T03:43:11;18.70;;;9.82;;
22650;SDS011;11492;42.646;23.400;2022-12-24T03:45:36;18.85;;;9.35;;
22650;SDS011;11492;42.646;23.400;2022-12-24T03:48:02;18.75;;;9.07;;
22650;SDS011;11492;42.646;23.400;2022-12-24T03:50:27;18.83;;;9.27;;
22650;SDS011;11492;42.646;23.400;2022-12-24T03:52:53;17.60;;;9.70;;
22650;SDS011;11492;42.646;23.400;2022-12-24T03:55:19;18.63;;;10.25;;
22650;SDS011;11492;42.646;23.400;2022-12-24T03:57:45;20.92;;;10.38;;
22650;SDS011;11492;42.646;23.400;2022-12-24T04:00:10;19.73;;;9.10;;
22650;SDS011;11492;42.646;23.400;2022-12-24T04:02:36;19.52;;;9.60;;
22650;SDS011;11492;42.646;23.400;2022-12-24T04:05:01;22.80;;;9.70;;
22650;SDS011;11492;42.646;23.400;2022-12-24T04:07:27;19.88;;;9.70;;
22650;SDS011;11492;42.646;23.400;2022-12-24T04:09:52;17.88;;;8.55;;
22650;SDS011;11492;42.646;23.400;2022-12-24T04:12:17;15.35;;;8.52;;
22650;SDS011;11492;42.646;23.400;2022-12-24T04:14:43;15.88;;;8.73;;
22650;SDS011;11492;42.646;23.400;2022-12-24T04:17:08;16.05;;;9.00;;
22650;SDS011;11492;42.646;23.400;2022-12-24T04:19:34;16.52;;;8.50;;
22650;SDS011;11492;42.646;23.400;2022-12-24T04:21:59;17.30;;;9.25;;
22650;SDS011;11492;42.646;23.400;2022-12-24T04:24:24;18.17;;;9.10;;
22650;SDS011;11492;42.646;23.400;2022-12-24T04:26:50;16.50;;;8.93;;
22650;SDS011;11492;42.646;23.400;2022-12-24T04:29:15;16.55;;;8.38;;
22650;SDS011;11492;42.646;23.400;2022-12-24T04:31:41;14.27;;;7.95;;
22650;SDS011;11492;42.646;23.400;2022-12-24T04:34:06;13.35;;;8.13;;
22650;SDS011;11492;42.646;23.400;2022-12-24T04:36:32;17.02;;;8.85;;
22650;SDS011;11492;42.646;23.400;2022-12-24T04:38:57;14.15;;;8.32;;
22650;SDS011;11492;42.646;23.400;2022-12-24T04:41:24;17.83;;;8.45;;
22650;SDS011;11492;42.646;23.400;2022-12-24T04:43:49;15.88;;;8.18;;
22650;SDS011;11492;42.646;23.400;2022-12-24T04:46:18;15.60;;;8.13;;
22650;SDS011;11492;42.646;23.400;2022-12-24T04:48:45;15.95;;;9.10;;
22650;SDS011;11492;42.646;23.400;2022-12-24T04:51:12;16.35;;;8.50;;
22650;SDS011;11492;42.646;23.400;2022-12-24T04:53:38;14.43;;;8.90;;
22650;SDS011;11492;42.646;23.400;2022-12-24T04:56:12;17.08;;;8.63;;
22650;SDS011;11492;42.646;23.400;2022-12-24T04:58:39;17.73;;;9.00;;
22650;SDS011;11492;42.646;23.400;2022-12-24T05:01:05;20.65;;;9.20;;
22650;SDS011;11492;42.646;23.400;2022-12-24T05:03:32;19.10;;;10.30;;
22650;SDS011;11492;42.646;23.400;2022-12-24T05:06:02;18.35;;;9.23;;
22650;SDS011;11492;42.646;23.400;2022-12-24T05:08:28;18.85;;;9.30;;
22650;SDS011;11492;42.646;23.400;2022-12-24T05:10:55;18.42;;;9.20;;
22650;SDS011;11492;42.646;23.400;2022-12-24T05:13:21;18.70;;;9.05;;
22650;SDS011;11492;42.646;23.400;2022-12-24T05:15:47;18.95;;;8.40;;
22650;SDS011;11492;42.646;23.400;2022-12-24T05:18:12;20.23;;;9.30;;
22650;SDS011;11492;42.646;23.400;2022-12-24T05:20:39;18.35;;;8.00;;
22650;SDS011;11492;42.646;23.400;2022-12-24T05:23:05;17.20;;;8.75;;
22650;SDS011;11492;42.646;23.400;2022-12-24T05:25:49;19.17;;;9.07;;
22650;SDS011;11492;42.646;23.400;2022-12-24T05:28:33;20.67;;;9.35;;
22650;SDS011;11492;42.646;23.400;2022-12-24T05:30:58;21.08;;;9.18;;
22650;SDS011;11492;42.646;23.400;2022-12-24T05:33:23;20.77;;;9.55;;
22650;SDS011;11492;42.646;23.400;2022-12-24T05:35:50;19.40;;;8.73;;
22650;SDS011;11492;42.646;23.400;2022-12-24T05:38:16;17.17;;;9.27;;
22650;SDS011;11492;42.646;23.400;2022-12-24T05:40:41;18.02;;;9.23;;
22650;SDS011;11492;42.646;23.400;2022-12-24T05:43:07;16.05;;;8.40;;
22650;SDS011;11492;42.646;23.400;2022-12-24T05:45:32;16.10;;;8.05;;
22650;SDS011;11492;42.646;23.400;2022-12-24T05:47:57;17.13;;;8.70;;
22650;SDS011;11492;42.646;23.400;2022-12-24T05:50:23;13.85;;;7.68;;
22650;SDS011;11492;42.646;23.400;2022-12-24T05:52:48;14.48;;;7.78;;
22650;SDS011;11492;42.646;23.400;2022-12-24T05:55:13;99.97;;;46.35;;
22650;SDS011;11492;42.646;23.400;2022-12-24T05:57:39;31.83;;;14.32;;
22650;SDS011;11492;42.646;23.400;2022-12-24T06:00:07;27.08;;;10.70;;
22650;SDS011;11492;42.646;23.400;2022-12-24T06:02:33;18.67;;;10.75;;
22650;SDS011;11492;42.646;23.400;2022-12-24T06:04:58;20.42;;;11.20;;
22650;SDS011;11492;42.646;23.400;2022-12-24T06:07:23;31.40;;;15.48;;
22650;SDS011;11492;42.646;23.400;2022-12-24T06:09:49;68.45;;;32.10;;
22650;SDS011;11492;42.646;23.400;2022-12-24T06:12:14;89.30;;;38.83;;
22650;SDS011;11492;42.646;23.400;2022-12-24T06:14:40;108.47;;;45.35;;
22650;SDS011;11492;42.646;23.400;2022-12-24T06:17:05;102.57;;;46.83;;
22650;SDS011;11492;42.646;23.400;2022-12-24T06:19:30;111.63;;;48.80;;
22650;SDS011;11492;42.646;23.400;2022-12-24T06:21:56;104.40;;;48.13;;
22650;SDS011;11492;42.646;23.400;2022-12-24T06:24:21;112.88;;;49.63;;
22650;SDS011;11492;42.646;23.400;2022-12-24T06:26:47;107.13;;;49.90;;
22650;SDS011;11492;42.646;23.400;2022-12-24T06:29:12;119.68;;;50.67;;
22650;SDS011;11492;42.646;23.400;2022-12-24T06:31:37;115.90;;;51.22;;
22650;SDS011;11492;42.646;23.400;2022-12-24T06:34:03;122.28;;;54.30;;
22650;SDS011;11492;42.646;23.400;2022-12-24T06:36:29;113.93;;;52.13;;
22650;SDS011;11492;42.646;23.400;2022-12-24T06:38:54;108.30;;;48.65;;
22650;SDS011;11492;42.646;23.400;2022-12-24T06:41:20;111.07;;;49.42;;
22650;SDS011;11492;42.646;23.400;2022-12-24T06:43:47;105.32;;;46.28;;
22650;SDS011;11492;42.646;23.400;2022-12-24T06:46:14;97.82;;;46.00;;
22650;SDS011;11492;42.646;23.400;2022-12-24T06:48:41;94.72;;;45.53;;
22650;SDS011;11492;42.646;23.400;2022-12-24T06:51:08;96.00;;;41.33;;
22650;SDS011;11492;42.646;23.400;2022-12-24T06:53:34;89.50;;;41.42;;
22650;SDS011;11492;42.646;23.400;2022-12-24T06:56:00;91.82;;;43.60;;
22650;SDS011;11492;42.646;23.400;2022-12-24T06:58:29;88.15;;;42.83;;
22650;SDS011;11492;42.646;23.400;2022-12-24T07:00:55;101.38;;;46.22;;
22650;SDS011;11492;42.646;23.400;2022-12-24T07:03:21;100.72;;;44.90;;
22650;SDS011;11492;42.646;23.400;2022-12-24T07:05:46;95.15;;;44.80;;
22650;SDS011;11492;42.646;23.400;2022-12-24T07:08:11;82.30;;;40.55;;
22650;SDS011;11492;42.646;23.400;2022-12-24T07:10:37;79.53;;;40.25;;
22650;SDS011;11492;42.646;23.400;2022-12-24T07:13:02;90.78;;;43.60;;
22650;SDS011;11492;42.646;23.400;2022-12-24T07:15:28;81.03;;;40.47;;
22650;SDS011;11492;42.646;23.400;2022-12-24T07:17:53;77.57;;;36.42;;
22650;SDS011;11492;42.646;23.400;2022-12-24T07:20:18;80.07;;;37.42;;
22650;SDS011;11492;42.646;23.400;2022-12-24T07:22:44;69.88;;;37.33;;
22650;SDS011;11492;42.646;23.400;2022-12-24T07:25:10;72.45;;;36.95;;
22650;SDS011;11492;42.646;23.400;2022-12-24T07:27:35;73.78;;;37.38;;
22650;SDS011;11492;42.646;23.400;2022-12-24T07:30:02;73.53;;;37.03;;
22650;SDS011;11492;42.646;23.400;2022-12-24T07:32:28;72.65;;;36.85;;
22650;SDS011;11492;42.646;23.400;2022-12-24T07:34:53;60.38;;;29.70;;
22650;SDS011;11492;42.646;23.400;2022-12-24T07:37:19;61.30;;;30.38;;
22650;SDS011;11492;42.646;23.400;2022-12-24T07:39:44;58.22;;;28.98;;
22650;SDS011;11492;42.646;23.400;2022-12-24T07:42:09;57.47;;;29.30;;
22650;SDS011;11492;42.646;23.400;2022-12-24T07:44:35;61.33;;;29.48;;
22650;SDS011;11492;42.646;23.400;2022-12-24T07:47:00;54.13;;;28.73;;
22650;SDS011;11492;42.646;23.400;2022-12-24T07:49:26;46.95;;;26.52;;
22650;SDS011;11492;42.646;23.400;2022-12-24T07:51:51;50.67;;;26.20;;
22650;SDS011;11492;42.646;23.400;2022-12-24T07:54:17;50.70;;;26.48;;
22650;SDS011;11492;42.646;23.400;2022-12-24T07:56:42;51.35;;;26.20;;
22650;SDS011;11492;42.646;23.400;2022-12-24T07:59:10;51.25;;;26.73;;
22650;SDS011;11492;42.646;23.400;2022-12-24T08:01:36;51.65;;;27.15;;
22650;SDS011;11492;42.646;23.400;2022-12-24T08:04:02;50.75;;;28.13;;
22650;SDS011;11492;42.646;23.400;2022-12-24T08:06:27;53.50;;;27.60;;
22650;SDS011;11492;42.646;23.400;2022-12-24T08:08:53;56.67;;;27.80;;
22650;SDS011;11492;42.646;23.400;2022-12-24T08:11:18;51.97;;;26.35;;
22650;SDS011;11492;42.646;23.400;2022-12-24T08:13:44;45.55;;;25.33;;
22650;SDS011;11492;42.646;23.400;2022-12-24T08:16:09;46.95;;;26.00;;
22650;SDS011;11492;42.646;23.400;2022-12-24T08:18:34;42.83;;;23.80;;
22650;SDS011;11492;42.646;23.400;2022-12-24T08:21:00;48.42;;;23.98;;
22650;SDS011;11492;42.646;23.400;2022-12-24T08:23:25;54.95;;;26.23;;
22650;SDS011;11492;42.646;23.400;2022-12-24T08:25:51;46.85;;;25.40;;
22650;SDS011;11492;42.646;23.400;2022-12-24T08:28:17;46.65;;;25.75;;
22650;SDS011;11492;42.646;23.400;2022-12-24T08:30:44;47.17;;;24.77;;
22650;SDS011;11492;42.646;23.400;2022-12-24T08:33:09;47.70;;;24.83;;
22650;SDS011;11492;42.646;23.400;2022-12-24T08:35:35;53.88;;;24.75;;
22650;SDS011;11492;42.646;23.400;2022-12-24T08:38:01;48.30;;;24.38;;
22650;SDS011;11492;42.646;23.400;2022-12-24T08:40:26;46.58;;;24.38;;
22650;SDS011;11492;42.646;23.400;2022-12-24T08:42:52;43.83;;;22.13;;
22650;SDS011;11492;42.646;23.400;2022-12-24T08:45:18;39.20;;;22.33;;
22650;SDS011;11492;42.646;23.400;2022-12-24T08:47:43;48.08;;;24.42;;
22650;SDS011;11492;42.646;23.400;2022-12-24T08:50:09;45.35;;;24.65;;
22650;SDS011;11492;42.646;23.400;2022-12-24T08:52:35;44.80;;;24.75;;
22650;SDS011;11492;42.646;23.400;2022-12-24T08:55:01;48.03;;;25.83;;
22650;SDS011;11492;42.646;23.400;2022-12-24T08:57:27;50.42;;;26.75;;
22650;SDS011;11492;42.646;23.400;2022-12-24T08:59:53;44.72;;;26.20;;
22650;SDS011;11492;42.646;23.400;2022-12-24T09:02:18;47.17;;;25.60;;
22650;SDS011;11492;42.646;23.400;2022-12-24T09:04:44;47.78;;;25.40;;
22650;SDS011;11492;42.646;23.400;2022-12-24T09:07:09;53.13;;;27.10;;
22650;SDS011;11492;42.646;23.400;2022-12-24T09:09:35;51.35;;;28.38;;
22650;SDS011;11492;42.646;23.400;2022-12-24T09:12:02;57.95;;;31.00;;
22650;SDS011;11492;42.646;23.400;2022-12-24T09:14:29;74.35;;;35.03;;
22650;SDS011;11492;42.646;23.400;2022-12-24T09:16:54;68.65;;;33.63;;
22650;SDS011;11492;42.646;23.400;2022-12-24T09:19:19;69.60;;;35.55;;
22650;SDS011;11492;42.646;23.400;2022-12-24T09:21:45;67.35;;;35.20;;
22650;SDS011;11492;42.646;23.400;2022-12-24T09:24:10;68.45;;;36.15;;
22650;SDS011;11492;42.646;23.400;2022-12-24T09:26:35;69.38;;;36.78;;
22650;SDS011;11492;42.646;23.400;2022-12-24T09:29:01;69.75;;;35.83;;
22650;SDS011;11492;42.646;23.400;2022-12-24T09:31:27;67.72;;;36.20;;
22650;SDS011;11492;42.646;23.400;2022-12-24T09:33:53;64.35;;;33.97;;
22650;SDS011;11492;42.646;23.400;2022-12-24T09:36:18;70.32;;;35.65;;
22650;SDS011;11492;42.646;23.400;2022-12-24T09:38:44;72.40;;;35.70;;
22650;SDS011;11492;42.646;23.400;2022-12-24T09:43:38;74.15;;;36.80;;
22650;SDS011;11492;42.646;23.400;2022-12-24T09:48:45;75.70;;;37.00;;
22650;SDS011;11492;42.646;23.400;2022-12-24T09:51:26;78.50;;;37.78;;
22650;SDS011;11492;42.646;23.400;2022-12-24T09:54:05;77.60;;;39.33;;
22650;SDS011;11492;42.646;23.400;2022-12-24T09:57:04;84.75;;;39.83;;
22650;SDS011;11492;42.646;23.400;2022-12-24T09:59:42;79.78;;;39.00;;
22650;SDS011;11492;42.646;23.400;2022-12-24T10:02:10;87.03;;;42.53;;
22650;SDS011;11492;42.646;23.400;2022-12-24T10:04:40;87.68;;;43.28;;
22650;SDS011;11492;42.646;23.400;2022-12-24T10:15:38;83.40;;;42.30;;
22650;SDS011;11492;42.646;23.400;2022-12-24T10:23:36;95.60;;;42.35;;
22650;SDS011;11492;42.646;23.400;2022-12-24T10:26:25;83.75;;;42.58;;
22650;SDS011;11492;42.646;23.400;2022-12-24T10:28:59;80.65;;;41.38;;
22650;SDS011;11492;42.646;23.400;2022-12-24T10:31:34;82.20;;;43.65;;
22650;SDS011;11492;42.646;23.400;2022-12-24T10:34:02;83.07;;;44.45;;
22650;SDS011;11492;42.646;23.400;2022-12-24T10:36:37;92.70;;;46.03;;
22650;SDS011;11492;42.646;23.400;2022-12-24T10:39:02;100.40;;;46.47;;
22650;SDS011;11492;42.646;23.400;2022-12-24T10:41:28;89.20;;;46.33;;
22650;SDS011;11492;42.646;23.400;2022-12-24T10:43:56;95.10;;;46.70;;
22650;SDS011;11492;42.646;23.400;2022-12-24T10:46:27;88.43;;;47.33;;
22650;SDS011;11492;42.646;23.400;2022-12-24T10:49:05;90.03;;;46.30;;
22650;SDS011;11492;42.646;23.400;2022-12-24T10:51:36;82.25;;;44.45;;
22650;SDS011;11492;42.646;23.400;2022-12-24T10:54:11;84.85;;;45.25;;
22650;SDS011;11492;42.646;23.400;2022-12-24T10:56:46;81.80;;;43.25;;
22650;SDS011;11492;42.646;23.400;2022-12-24T10:59:29;69.68;;;36.47;;
22650;SDS011;11492;42.646;23.400;2022-12-24T11:02:00;72.38;;;37.00;;
22650;SDS011;11492;42.646;23.400;2022-12-24T11:04:30;73.55;;;37.50;;
22650;SDS011;11492;42.646;23.400;2022-12-24T11:07:00;70.50;;;36.97;;
22650;SDS011;11492;42.646;23.400;2022-12-24T11:09:29;71.78;;;36.80;;
22650;SDS011;11492;42.646;23.400;2022-12-24T11:11:57;72.45;;;35.63;;
22650;SDS011;11492;42.646;23.400;2022-12-24T11:14:24;74.32;;;36.25;;
22650;SDS011;11492;42.646;23.400;2022-12-24T11:16:58;72.05;;;35.50;;
22650;SDS011;11492;42.646;23.400;2022-12-24T11:19:34;71.28;;;34.50;;
22650;SDS011;11492;42.646;23.400;2022-12-24T11:22:07;63.78;;;33.45;;
22650;SDS011;11492;42.646;23.400;2022-12-24T11:24:42;61.88;;;32.22;;
22650;SDS011;11492;42.646;23.400;2022-12-24T11:27:28;65.95;;;32.53;;
22650;SDS011;11492;42.646;23.400;2022-12-24T11:32:45;54.42;;;31.15;;
22650;SDS011;11492;42.646;23.400;2022-12-24T11:35:32;64.60;;;30.38;;
22650;SDS011;11492;42.646;23.400;2022-12-24T11:40:39;55.72;;;28.80;;
22650;SDS011;11492;42.646;23.400;2022-12-24T11:43:12;53.90;;;28.60;;
22650;SDS011;11492;42.646;23.400;2022-12-24T11:45:46;58.95;;;28.38;;
22650;SDS011;11492;42.646;23.400;2022-12-24T11:51:33;49.92;;;26.73;;
22650;SDS011;11492;42.646;23.400;2022-12-24T11:56:43;49.13;;;26.40;;
22650;SDS011;11492;42.646;23.400;2022-12-24T12:02:01;51.33;;;25.60;;
22650;SDS011;11492;42.646;23.400;2022-12-24T12:04:50;55.42;;;24.83;;
22650;SDS011;11492;42.646;23.400;2022-12-24T12:07:29;47.35;;;24.90;;
22650;SDS011;11492;42.646;23.400;2022-12-24T12:12:45;57.92;;;26.83;;
22650;SDS011;11492;42.646;23.400;2022-12-24T12:15:22;54.60;;;25.80;;
22650;SDS011;11492;42.646;23.400;2022-12-24T12:20:27;52.80;;;27.50;;
22650;SDS011;11492;42.646;23.400;2022-12-24T12:25:58;51.40;;;28.05;;
22650;SDS011;11492;42.646;23.400;2022-12-24T12:28:26;57.65;;;28.33;;
22650;SDS011;11492;42.646;23.400;2022-12-24T12:31:10;56.05;;;28.90;;
22650;SDS011;11492;42.646;23.400;2022-12-24T12:33:46;63.70;;;30.05;;
22650;SDS011;11492;42.646;23.400;2022-12-24T12:36:17;65.10;;;33.83;;
22650;SDS011;11492;42.646;23.400;2022-12-24T12:38:47;70.90;;;35.35;;
22650;SDS011;11492;42.646;23.400;2022-12-24T12:44:17;73.45;;;34.60;;
22650;SDS011;11492;42.646;23.400;2022-12-24T12:50:11;65.90;;;33.80;;
22650;SDS011;11492;42.646;23.400;2022-12-24T12:59:01;63.95;;;33.45;;
22650;SDS011;11492;42.646;23.400;2022-12-24T13:21:22;62.70;;;29.55;;
22650;SDS011;11492;42.646;23.400;2022-12-24T13:23:49;71.43;;;31.27;;
22650;SDS011;11492;42.646;23.400;2022-12-24T13:26:15;65.18;;;27.90;;
22650;SDS011;11492;42.646;23.400;2022-12-24T13:28:42;47.60;;;24.67;;
22650;SDS011;11492;42.646;23.400;2022-12-24T13:33:58;51.22;;;22.92;;
22650;SDS011;11492;42.646;23.400;2022-12-24T13:36:24;46.25;;;23.40;;
22650;SDS011;11492;42.646;23.400;2022-12-24T13:39:27;48.35;;;23.63;;
22650;SDS011;11492;42.646;23.400;2022-12-24T13:41:52;41.55;;;23.38;;
22650;SDS011;11492;42.646;23.400;2022-12-24T13:44:19;43.08;;;23.58;;
22650;SDS011;11492;42.646;23.400;2022-12-24T13:49:15;52.88;;;26.05;;
22650;SDS011;11492;42.646;23.400;2022-12-24T13:51:44;50.35;;;27.25;;
22650;SDS011;11492;42.646;23.400;2022-12-24T13:54:11;56.28;;;28.55;;
22650;SDS011;11492;42.646;23.400;2022-12-24T13:56:38;63.33;;;29.00;;
22650;SDS011;11492;42.646;23.400;2022-12-24T13:59:11;53.92;;;29.95;;
22650;SDS011;11492;42.646;23.400;2022-12-24T14:01:38;54.38;;;30.45;;
22650;SDS011;11492;42.646;23.400;2022-12-24T14:04:06;62.35;;;31.40;;
22650;SDS011;11492;42.646;23.400;2022-12-24T14:06:35;57.63;;;31.27;;
22650;SDS011;11492;42.646;23.400;2022-12-24T14:09:08;59.70;;;32.20;;
22650;SDS011;11492;42.646;23.400;2022-12-24T14:12:12;60.05;;;33.20;;
22650;SDS011;11492;42.646;23.400;2022-12-24T14:16:58;65.60;;;33.47;;
22650;SDS011;11492;42.646;23.400;2022-12-24T14:19:59;65.72;;;34.25;;
22650;SDS011;11492;42.646;23.400;2022-12-24T14:22:32;63.97;;;35.72;;
22650;SDS011;11492;42.646;23.400;2022-12-24T14:25:03;68.07;;;34.10;;
22650;SDS011;11492;42.646;23.400;2022-12-24T14:30:16;75.35;;;36.70;;
22650;SDS011;11492;42.646;23.400;2022-12-24T14:32:44;73.32;;;36.67;;
22650;SDS011;11492;42.646;23.400;2022-12-24T14:35:24;68.95;;;37.55;;
22650;SDS011;11492;42.646;23.400;2022-12-24T14:40:30;72.28;;;38.00;;
22650;SDS011;11492;42.646;23.400;2022-12-24T14:43:10;75.07;;;39.83;;
22650;SDS011;11492;42.646;23.400;2022-12-24T14:45:50;77.93;;;42.03;;
22650;SDS011;11492;42.646;23.400;2022-12-24T14:48:25;68.88;;;38.28;;
22650;SDS011;11492;42.646;23.400;2022-12-24T14:56:17;73.32;;;35.13;;
22650;SDS011;11492;42.646;23.400;2022-12-24T14:58:44;73.85;;;38.05;;
22650;SDS011;11492;42.646;23.400;2022-12-24T15:03:45;81.90;;;38.92;;
22650;SDS011;11492;42.646;23.400;2022-12-24T15:06:11;81.30;;;39.72;;
22650;SDS011;11492;42.646;23.400;2022-12-24T15:08:44;76.78;;;39.05;;
22650;SDS011;11492;42.646;23.400;2022-12-24T15:11:14;108.55;;;48.58;;
22650;SDS011;11492;42.646;23.400;2022-12-24T15:13:44;105.32;;;48.08;;
22650;SDS011;11492;42.646;23.400;2022-12-24T15:16:14;122.47;;;52.90;;
22650;SDS011;11492;42.646;23.400;2022-12-24T15:19:10;125.07;;;57.60;;
22650;SDS011;11492;42.646;23.400;2022-12-24T15:21:43;138.95;;;57.80;;
22650;SDS011;11492;42.646;23.400;2022-12-24T15:24:27;145.38;;;64.30;;
22650;SDS011;11492;42.646;23.400;2022-12-24T15:26:54;132.95;;;58.25;;
22650;SDS011;11492;42.646;23.400;2022-12-24T15:29:21;148.88;;;64.40;;
22650;SDS011;11492;42.646;23.400;2022-12-24T15:31:55;89.35;;;42.70;;
22650;SDS011;11492;42.646;23.400;2022-12-24T15:36:58;121.68;;;52.80;;
22650;SDS011;11492;42.646;23.400;2022-12-24T15:39:28;100.10;;;46.15;;
22650;SDS011;11492;42.646;23.400;2022-12-24T15:41:54;81.25;;;37.15;;
22650;SDS011;11492;42.646;23.400;2022-12-24T15:44:43;67.78;;;32.45;;
22650;SDS011;11492;42.646;23.400;2022-12-24T15:47:19;66.75;;;32.13;;
22650;SDS011;11492;42.646;23.400;2022-12-24T15:49:52;62.50;;;31.10;;
22650;SDS011;11492;42.646;23.400;2022-12-24T15:52:19;65.10;;;30.55;;
22650;SDS011;11492;42.646;23.400;2022-12-24T15:54:48;56.45;;;27.55;;
22650;SDS011;11492;42.646;23.400;2022-12-24T15:57:30;52.45;;;28.85;;
22650;SDS011;11492;42.646;23.400;2022-12-24T15:59:58;70.68;;;40.50;;
22650;SDS011;11492;42.646;23.400;2022-12-24T16:02:32;67.25;;;31.20;;
22650;SDS011;11492;42.646;23.400;2022-12-24T16:10:33;57.50;;;26.63;;
22650;SDS011;11492;42.646;23.400;2022-12-24T16:13:07;82.32;;;42.65;;
22650;SDS011;11492;42.646;23.400;2022-12-24T16:15:48;76.93;;;39.70;;
22650;SDS011;11492;42.646;23.400;2022-12-24T16:18:25;79.32;;;39.28;;
22650;SDS011;11492;42.646;23.400;2022-12-24T16:20:55;73.97;;;38.40;;
22650;SDS011;11492;42.646;23.400;2022-12-24T16:23:22;71.28;;;36.97;;
22650;SDS011;11492;42.646;23.400;2022-12-24T16:25:51;79.43;;;40.80;;
22650;SDS011;11492;42.646;23.400;2022-12-24T16:28:19;78.15;;;41.33;;
22650;SDS011;11492;42.646;23.400;2022-12-24T16:30:46;98.78;;;50.92;;
22650;SDS011;11492;42.646;23.400;2022-12-24T16:33:13;99.00;;;48.38;;